Zelenodolsk — UYXW — position and weather

sailwx.info

Track history (hours):
 
Tides and Currents Weather Stations Pressure Air Temp Water Temp Dewpoint Dewpoint Depression Visibility Wind Speed Wind Dir Waves Ship Positions

Zelenodolsk

Last reported at 2017-Dec-01 19:46 UTC. Time now 2017-Dec-18 16:32 UTC.
Position N 43°51' E 023°22'.
Warning: this ship's position is 16 days out of date.

Length 32 m; draft 1.8 m.

Type: Ship. MMSI: 272029800.

Date/timePositionNaut miles runAvg speedWind from/ knotsBaromVisibWave heightAir tempDewpointWater temp
2017-Dec-01 19:46N 43°51' E 023°22'2 6.4
2017-Dec-01 19:26N 43°51' E 023°19'3 6.4
2017-Dec-01 18:58N 43°50' E 023°14'2 2.6
2017-Dec-01 18:13N 43°50' E 023°12'0 0.1
2017-Dec-01 16:51N 43°50' E 023°12'0 0.2
2017-Dec-01 16:06N 43°50' E 023°12'0 0.4
2017-Dec-01 15:49N 43°50' E 023°12'1 4.3
2017-Dec-01 15:28N 43°49' E 023°10'6 7.3
2017-Dec-01 14:36N 43°48' E 023°01'2 7.1
2017-Dec-01 14:22N 43°49' E 022°59'3 7.3
2017-Dec-01 14:00N 43°49' E 022°56'4 7.2
2017-Dec-01 13:30N 43°51' E 022°51'4 7.1
2017-Dec-01 13:00N 43°54' E 022°51'3 6.9
2017-Dec-01 12:30N 43°58' E 022°52'3 6.7
2017-Dec-01 12:00N 44°00' E 022°56'4 7.3
2017-Dec-01 11:31N 44°01' E 023°01'4 7.2
2017-Dec-01 11:00N 44°04' E 023°03'3 6.9
2017-Dec-01 10:30N 44°06' E 022°59'4 7.0
2017-Dec-01 10:00N 44°07' E 022°54'4 7.2
2017-Dec-01 09:30N 44°09' E 022°50'4 7.8
2017-Dec-01 09:01N 44°11' E 022°46'4 8.0
2017-Dec-01 08:30N 44°13' E 022°41'4 7.1
2017-Dec-01 08:00N 44°16' E 022°41'3 6.9
2017-Dec-01 07:30N 44°18' E 022°36'2 3.7
2017-Dec-01 07:01N 44°18' E 022°34'0 0.4
2017-Dec-01 06:30N 44°18' E 022°34'3 5.7
2017-Dec-01 06:00N 44°21' E 022°31'3 6.6
2017-Dec-01 05:30N 44°24' E 022°30'3 5.7
2017-Dec-01 05:00N 44°26' E 022°28'2 5.0
2017-Dec-01 04:31N 44°29' E 022°28'3 5.8
2017-Dec-01 04:00N 44°29' E 022°33'3 5.7
2017-Dec-01 03:30N 44°31' E 022°34'3 5.3
2017-Dec-01 03:00N 44°33' E 022°37'3 5.9
2017-Dec-01 02:31N 44°32' E 022°40'3 5.4
2017-Dec-01 02:01N 44°32' E 022°44'2 4.8
2017-Dec-01 01:30N 44°34' E 022°45'3 5.9
2017-Dec-01 01:00N 44°36' E 022°42'3 5.7
2017-Dec-01 00:30N 44°37' E 022°39'3 5.7
2017-Dec-01 00:00N 44°38' E 022°35'3 5.7
2017-Nov-30 23:30N 44°40' E 022°32'0 0.5
2017-Nov-30 22:58N 44°40' E 022°32'0 0.4
2017-Nov-30 22:30N 44°40' E 022°31'0 0.0
2017-Nov-30 22:00N 44°40' E 022°31'1 2.6
2017-Nov-30 21:30N 44°41' E 022°30'1 1.1
2017-Nov-30 21:00N 44°42' E 022°30'1 2.6
2017-Nov-30 20:30N 44°42' E 022°28'2 3.5
2017-Nov-30 20:01N 44°43' E 022°26'3 6.0
2017-Nov-30 19:30N 44°41' E 022°23'3 6.0
2017-Nov-30 19:01N 44°40' E 022°19'7 6.3
2017-Nov-30 17:52N 44°33' E 022°14'3 6.3
2017-Nov-30 17:19N 44°30' E 022°12'2 6.2
2017-Nov-30 17:00N 44°29' E 022°11'3 6.1
2017-Nov-30 16:30N 44°29' E 022°06'3 6.2
2017-Nov-30 16:00N 44°32' E 022°04'3 6.2
2017-Nov-30 15:30N 44°34' E 022°02'15 0.9
2017-Nov-29 23:11N 44°40' E 021°42'1 5.6
2017-Nov-29 23:00N 44°40' E 021°41'3 4.6
2017-Nov-29 22:24N 44°40' E 021°37'2 5.5
2017-Nov-29 21:59N 44°43' E 021°37'3 5.8
2017-Nov-29 21:31N 44°45' E 021°35'3 6.0
2017-Nov-29 21:00N 44°46' E 021°31'1 1.4
2017-Nov-29 20:30N 44°46' E 021°31'0 0.7
2017-Nov-29 20:00N 44°46' E 021°31'0 0.0
2017-Nov-29 19:30N 44°46' E 021°31'0 0.0
2017-Nov-29 18:53N 44°46' E 021°31'0 0.0
2017-Nov-29 18:30N 44°46' E 021°31'0 0.0
2017-Nov-29 17:59N 44°46' E 021°31'0 0.0
2017-Nov-29 17:30N 44°46' E 021°31'0 0.5
2017-Nov-29 17:00N 44°46' E 021°31'0 0.4
2017-Nov-29 16:24N 44°46' E 021°30'3 6.3
2017-Nov-29 15:51N 44°46' E 021°25'7 5.0
2017-Nov-29 14:29N 44°48' E 021°16'3 6.4
2017-Nov-29 14:00N 44°46' E 021°12'3 6.5
2017-Nov-29 13:30N 44°44' E 021°09'3 6.5
2017-Nov-29 13:00N 44°43' E 021°04'3 6.3
2017-Nov-29 12:30N 44°43' E 021°00'2 4.5
2017-Nov-29 12:00N 44°42' E 020°57'0 0.1
2017-Nov-29 11:30N 44°42' E 020°57'1 2.9
2017-Nov-29 11:00N 44°41' E 020°56'1 0.6
2017-Nov-29 09:27N 44°40' E 020°55'2 5.0
2017-Nov-29 09:00N 44°42' E 020°57'0 0.5
2017-Nov-29 08:30N 44°42' E 020°57'0 0.0
2017-Nov-29 08:00N 44°42' E 020°57'0 0.0
2017-Nov-29 07:30N 44°42' E 020°57'0 0.1
2017-Nov-29 07:00N 44°42' E 020°57'0 0.1
2017-Nov-29 06:30N 44°42' E 020°57'0 0.0
2017-Nov-29 06:00N 44°42' E 020°57'0 0.0
2017-Nov-29 05:30N 44°42' E 020°57'0 0.0
2017-Nov-29 05:00N 44°42' E 020°57'0 0.0
2017-Nov-29 04:30N 44°42' E 020°57'0 0.0
2017-Nov-29 03:57N 44°42' E 020°57'0 0.0
2017-Nov-29 03:23N 44°42' E 020°57'0 0.0
2017-Nov-29 03:00N 44°42' E 020°57'0 0.0
2017-Nov-29 02:30N 44°42' E 020°57'0 0.0
2017-Nov-29 02:00N 44°42' E 020°57'0 0.0
2017-Nov-29 01:30N 44°42' E 020°57'0 0.0
2017-Nov-29 01:00N 44°42' E 020°57'0 0.0
2017-Nov-29 00:30N 44°42' E 020°57'0 0.0
2017-Nov-29 00:00N 44°42' E 020°57'0 0.0
2017-Nov-28 23:30N 44°42' E 020°57'0 0.0
2017-Nov-28 23:00N 44°42' E 020°57'0 0.0
2017-Nov-28 22:30N 44°42' E 020°57'0 0.0
2017-Nov-28 22:00N 44°42' E 020°57'0 0.0
2017-Nov-28 21:30N 44°42' E 020°57'0 0.0
2017-Nov-28 21:00N 44°42' E 020°57'0 0.0
2017-Nov-28 20:30N 44°42' E 020°57'0 0.0
2017-Nov-28 20:00N 44°42' E 020°57'0 0.0
2017-Nov-28 19:30N 44°42' E 020°57'0 0.0
2017-Nov-28 19:00N 44°42' E 020°57'0 0.0
2017-Nov-28 18:31N 44°42' E 020°57'0 0.0
2017-Nov-28 18:00N 44°42' E 020°57'0 0.0
2017-Nov-28 17:30N 44°42' E 020°57'0 0.0
2017-Nov-28 17:00N 44°42' E 020°57'0 0.0
2017-Nov-28 16:30N 44°42' E 020°57'0 0.0
2017-Nov-28 16:00N 44°42' E 020°57'0 0.5
2017-Nov-28 15:01N 44°42' E 020°58'0 0.0
2017-Nov-28 14:30N 44°42' E 020°58'0 0.0
2017-Nov-28 14:00N 44°42' E 020°58'0 0.0
2017-Nov-28 13:30N 44°42' E 020°58'0 0.0
2017-Nov-28 13:00N 44°42' E 020°58'2 4.0
2017-Nov-28 12:30N 44°41' E 020°56'1 1.8
2017-Nov-28 12:00N 44°40' E 020°55'0 0.0
2017-Nov-28 11:31N 44°40' E 020°55'0 0.0
2017-Nov-28 11:00N 44°40' E 020°55'0 0.0
2017-Nov-28 10:31N 44°40' E 020°55'1 0.2
2017-Nov-28 06:49N 44°40' E 020°56'1 4.6
2017-Nov-28 06:29N 44°42' E 020°57'0 0.8
2017-Nov-28 06:01N 44°42' E 020°57'0 0.0
2017-Nov-28 05:30N 44°42' E 020°57'0 0.0
2017-Nov-28 04:30N 44°42' E 020°57'0 0.0
2017-Nov-28 04:00N 44°42' E 020°57'0 0.0
2017-Nov-28 03:29N 44°42' E 020°57'0 0.0
2017-Nov-28 03:00N 44°42' E 020°57'0 0.0
2017-Nov-28 02:30N 44°42' E 020°57'0 0.5
2017-Nov-28 01:34N 44°42' E 020°58'0 0.0
2017-Nov-28 01:03N 44°42' E 020°58'0 0.0
2017-Nov-28 00:34N 44°42' E 020°58'0 0.0
2017-Nov-27 23:48N 44°42' E 020°58'0 0.0
2017-Nov-27 23:31N 44°42' E 020°58'0 0.0
2017-Nov-27 23:01N 44°42' E 020°58'0 0.0
2017-Nov-27 22:30N 44°42' E 020°58'0 0.0
2017-Nov-27 22:01N 44°42' E 020°58'0 0.0
2017-Nov-27 21:31N 44°42' E 020°58'0 0.1
2017-Nov-27 21:00N 44°42' E 020°58'0 0.0
2017-Nov-27 20:31N 44°42' E 020°58'0 0.0
2017-Nov-27 20:01N 44°42' E 020°58'0 0.0
2017-Nov-27 19:30N 44°42' E 020°58'0 0.0
2017-Nov-27 19:00N 44°42' E 020°58'0 0.1
2017-Nov-27 18:30N 44°42' E 020°58'0 0.0
2017-Nov-27 18:01N 44°42' E 020°58'1 1.6
2017-Nov-27 17:30N 44°43' E 020°59'1 2.4
2017-Nov-27 17:00N 44°43' E 021°00'1 2.7
2017-Nov-27 16:30N 44°43' E 021°02'1 2.8
2017-Nov-27 16:01N 44°43' E 021°04'1 2.8
2017-Nov-27 15:31N 44°44' E 021°06'1 2.8
2017-Nov-27 15:01N 44°44' E 021°08'1 2.7
2017-Nov-27 14:30N 44°45' E 021°10'2 3.5
2017-Nov-27 13:50N 44°46' E 021°12'1 4.2
2017-Nov-27 13:31N 44°47' E 021°14'2 4.5
2017-Nov-27 12:58N 44°48' E 021°17'5 3.7
2017-Nov-27 11:44N 44°48' E 021°23'1 3.9
2017-Nov-27 11:26N 44°47' E 021°24'2 4.1
2017-Nov-27 11:00N 44°47' E 021°26'2 4.2
2017-Nov-27 10:27N 44°46' E 021°30'1 1.8
2017-Nov-27 10:00N 44°46' E 021°31'0 0.4
2017-Nov-27 09:27N 44°46' E 021°31'0 0.0
2017-Nov-27 09:00N 44°46' E 021°31'0 0.0
2017-Nov-27 08:12N 44°46' E 021°31'0 0.0
2017-Nov-27 07:53N 44°46' E 021°31'0 0.0
2017-Nov-27 07:30N 44°46' E 021°31'0 0.0
2017-Nov-27 06:56N 44°46' E 021°31'0 0.5
2017-Nov-27 06:30N 44°46' E 021°31'1 2.3
2017-Nov-27 05:56N 44°46' E 021°33'3 4.1
2017-Nov-27 05:18N 44°45' E 021°36'1 3.0
2017-Nov-27 05:00N 44°44' E 021°36'0 0.1
2017-Nov-27 04:17N 44°44' E 021°36'0 0.0
2017-Nov-27 03:57N 44°44' E 021°36'0 0.0
2017-Nov-27 03:31N 44°44' E 021°36'0 0.0
2017-Nov-27 02:56N 44°44' E 021°36'0 0.0
2017-Nov-27 02:31N 44°44' E 021°36'0 0.0
2017-Nov-27 01:45N 44°44' E 021°36'0 0.0
2017-Nov-27 01:25N 44°44' E 021°36'0 0.0
2017-Nov-27 01:01N 44°44' E 021°36'0 0.0
2017-Nov-27 00:26N 44°44' E 021°36'0 0.0
2017-Nov-27 00:00N 44°44' E 021°36'0 0.0
2017-Nov-26 23:22N 44°44' E 021°36'0 0.0
2017-Nov-26 23:00N 44°44' E 021°36'0 0.0
2017-Nov-26 22:22N 44°44' E 021°36'0 0.0
2017-Nov-26 22:01N 44°44' E 021°36'0 0.3
2017-Nov-26 21:22N 44°44' E 021°36'3 3.2
2017-Nov-26 20:21N 44°41' E 021°39'1 3.7
2017-Nov-26 19:58N 44°40' E 021°41'15 3.6
2017-Nov-26 15:50N 44°36' E 022°01'1 4.2
2017-Nov-26 15:30N 44°35' E 022°02'2 4.2
2017-Nov-26 14:55N 44°33' E 022°03'2 4.4
2017-Nov-26 14:31N 44°31' E 022°04'2 4.5
2017-Nov-26 14:00N 44°29' E 022°06'2 4.5
2017-Nov-26 13:31N 44°28' E 022°09'2 4.2
2017-Nov-26 13:01N 44°29' E 022°11'3 4.7
2017-Nov-26 12:28N 44°32' E 022°13'7 4.1
2017-Nov-26 10:41N 44°38' E 022°18'1 4.5
2017-Nov-26 10:25N 44°39' E 022°18'2 4.5
2017-Nov-26 10:00N 44°40' E 022°20'2 4.5
2017-Nov-26 09:30N 44°41' E 022°24'0 0.6
2017-Nov-26 09:00N 44°41' E 022°24'0 0.0
2017-Nov-26 08:30N 44°41' E 022°24'0 0.0
2017-Nov-26 08:00N 44°41' E 022°24'0 0.0
2017-Nov-26 07:30N 44°41' E 022°24'0 0.0
2017-Nov-26 07:00N 44°41' E 022°24'0 0.5
2017-Nov-26 06:30N 44°41' E 022°24'2 3.2
2017-Nov-26 06:00N 44°42' E 022°25'2 4.8
2017-Nov-26 05:30N 44°42' E 022°28'3 5.5
2017-Nov-26 05:00N 44°40' E 022°31'0 1.0
2017-Nov-26 04:30N 44°40' E 022°31'0 0.2
2017-Nov-26 03:43N 44°40' E 022°32'0 0.0
2017-Nov-26 03:31N 44°40' E 022°32'1 1.1
2017-Nov-26 02:30N 44°39' E 022°33'2 3.3
2017-Nov-26 02:01N 44°38' E 022°34'2 3.1
2017-Nov-26 01:31N 44°37' E 022°36'0 0.0
2017-Nov-26 01:01N 44°37' E 022°36'0 0.0
2017-Nov-26 00:31N 44°37' E 022°36'0 0.0
2017-Nov-26 00:01N 44°37' E 022°36'0 0.0
2017-Nov-25 23:18N 44°37' E 022°36'0 0.0
2017-Nov-25 23:01N 44°37' E 022°36'0 0.0
2017-Nov-25 22:31N 44°37' E 022°36'0 0.0
2017-Nov-25 22:01N 44°37' E 022°36'0 0.0
2017-Nov-25 21:31N 44°37' E 022°36'0 0.0
2017-Nov-25 21:01N 44°37' E 022°36'0 0.1
2017-Nov-25 20:31N 44°37' E 022°36'1 1.5
2017-Nov-25 20:01N 44°37' E 022°37'2 3.6
2017-Nov-25 19:31N 44°37' E 022°40'2 4.1
2017-Nov-25 19:01N 44°36' E 022°42'2 4.1
2017-Nov-25 18:30N 44°35' E 022°44'2 3.9
2017-Nov-25 18:01N 44°33' E 022°46'2 3.1
2017-Nov-25 17:31N 44°32' E 022°44'2 3.6
2017-Nov-25 17:01N 44°31' E 022°42'2 4.0
2017-Nov-25 16:31N 44°32' E 022°40'2 4.2
2017-Nov-25 16:00N 44°33' E 022°37'2 3.9
2017-Nov-25 15:30N 44°33' E 022°34'2 4.2
2017-Nov-25 15:00N 44°31' E 022°34'2 4.3
2017-Nov-25 14:30N 44°29' E 022°32'2 4.2
2017-Nov-25 14:00N 44°29' E 022°29'2 3.1
2017-Nov-25 13:30N 44°28' E 022°27'2 4.1
2017-Nov-25 13:01N 44°26' E 022°29'2 4.2
2017-Nov-25 12:31N 44°24' E 022°30'2 4.5
2017-Nov-25 12:01N 44°22' E 022°31'2 5.0
2017-Nov-25 11:31N 44°20' E 022°32'2 3.9
2017-Nov-25 11:00N 44°18' E 022°34'0 0.2
2017-Nov-25 10:30N 44°18' E 022°34'1 2.0
2017-Nov-25 10:01N 44°18' E 022°35'1 2.9
2017-Nov-25 09:31N 44°18' E 022°37'0 0.0
2017-Nov-25 09:01N 44°18' E 022°37'0 0.7
2017-Nov-25 08:30N 44°17' E 022°37'0 0.0
2017-Nov-25 08:01N 44°17' E 022°37'0 0.0
2017-Nov-25 07:31N 44°17' E 022°37'0 0.0
2017-Nov-25 07:01N 44°17' E 022°37'0 0.0
2017-Nov-25 06:31N 44°17' E 022°37'1 2.5
2017-Nov-25 06:01N 44°17' E 022°39'0 0.7
2017-Nov-25 05:31N 44°17' E 022°38'0 1.0
2017-Nov-25 05:01N 44°18' E 022°38'0 0.0
2017-Nov-25 04:31N 44°18' E 022°38'0 0.0
2017-Nov-25 03:48N 44°18' E 022°38'0 0.0
2017-Nov-25 03:31N 44°18' E 022°38'0 0.0
2017-Nov-25 03:01N 44°18' E 022°38'0 0.0
2017-Nov-25 02:31N 44°18' E 022°38'0 0.0
2017-Nov-25 02:01N 44°18' E 022°38'0 0.0
2017-Nov-25 01:31N 44°18' E 022°38'0 0.0
2017-Nov-25 01:01N 44°18' E 022°38'0 0.0
2017-Nov-25 00:31N 44°18' E 022°38'0 0.1
2017-Nov-25 00:01N 44°18' E 022°38'1 1.2
2017-Nov-24 23:31N 44°18' E 022°38'1 2.8
2017-Nov-24 23:01N 44°17' E 022°40'1 2.7
2017-Nov-24 22:31N 44°16' E 022°41'1 2.6
2017-Nov-24 22:01N 44°15' E 022°41'1 2.4
2017-Nov-24 21:31N 44°14' E 022°40'1 1.7
2017-Nov-24 21:00N 44°13' E 022°41'1 2.1
2017-Nov-24 20:30N 44°12' E 022°42'1 2.2
2017-Nov-24 20:00N 44°12' E 022°44'1 1.8
2017-Nov-24 19:30N 44°12' E 022°45'1 1.6
2017-Nov-24 19:00N 44°11' E 022°46'1 2.0
2017-Nov-24 18:30N 44°10' E 022°47'1 2.5
2017-Nov-24 18:00N 44°10' E 022°48'1 2.6
2017-Nov-24 17:30N 44°09' E 022°50'1 2.4
2017-Nov-24 17:00N 44°08' E 022°51'1 2.3
2017-Nov-24 16:30N 44°08' E 022°52'1 2.5
2017-Nov-24 16:00N 44°07' E 022°54'1 2.3
2017-Nov-24 15:30N 44°06' E 022°55'1 2.1
2017-Nov-24 15:00N 44°06' E 022°56'1 2.6
2017-Nov-24 14:30N 44°06' E 022°58'1 2.6
2017-Nov-24 14:00N 44°06' E 022°60'1 2.8
2017-Nov-24 13:30N 44°05' E 023°02'1 2.6
2017-Nov-24 13:00N 44°04' E 023°03'1 2.3
2017-Nov-24 12:30N 44°03' E 023°03'1 2.3
2017-Nov-24 12:00N 44°02' E 023°02'1 2.4
2017-Nov-24 11:30N 44°01' E 023°01'1 2.4
2017-Nov-24 11:00N 44°01' E 022°59'1 1.0
2017-Nov-24 10:30N 44°00' E 022°59'1 2.0
2017-Nov-24 10:00N 44°00' E 022°57'1 2.5
2017-Nov-24 09:30N 44°00' E 022°56'1 2.7
2017-Nov-24 09:00N 43°60' E 022°54'1 2.5
2017-Nov-24 08:30N 43°59' E 022°53'2 3.0
2017-Nov-24 08:00N 43°57' E 022°52'1 3.0
2017-Nov-24 07:30N 43°56' E 022°52'1 2.7
2017-Nov-24 07:00N 43°55' E 022°51'1 2.2
2017-Nov-24 06:30N 43°54' E 022°50'1 2.6
2017-Nov-24 06:00N 43°52' E 022°51'1 2.7
2017-Nov-24 05:30N 43°51' E 022°51'1 2.8
2017-Nov-24 05:00N 43°50' E 022°53'1 2.9
2017-Nov-24 04:30N 43°50' E 022°55'1 2.7
2017-Nov-24 04:00N 43°49' E 022°56'1 2.6
2017-Nov-24 03:29N 43°49' E 022°58'1 2.6
2017-Nov-24 02:58N 43°48' E 023°00'1 0.2
2017-Nov-23 21:52N 43°48' E 023°01'1 2.1
2017-Nov-23 21:10N 43°48' E 023°03'0 1.9
2017-Nov-23 21:00N 43°48' E 023°04'3 1.8
2017-Nov-23 19:06N 43°48' E 023°08'1 2.3
2017-Nov-23 18:39N 43°49' E 023°09'0 2.6
2017-Nov-23 18:30N 43°49' E 023°10'1 2.5
2017-Nov-23 18:00N 43°50' E 023°12'1 2.8
2017-Nov-23 17:30N 43°50' E 023°13'1 2.4
2017-Nov-23 16:53N 43°51' E 023°15'0 0.6
2017-Nov-23 16:23N 43°51' E 023°16'3 7.1
2017-Nov-23 16:00N 43°50' E 023°12'0 0.7
2017-Nov-23 15:21N 43°50' E 023°13'1 1.8
2017-Nov-23 15:00N 43°50' E 023°13'0 0.8
2017-Nov-23 14:30N 43°50' E 023°14'0 0.0
2017-Nov-23 13:57N 43°50' E 023°14'0 0.0
2017-Nov-23 13:24N 43°50' E 023°14'0 0.0
2017-Nov-23 10:32N 43°50' E 023°14'0 0.8
2017-Nov-23 10:29N 43°50' E 023°14'1 2.8
2017-Nov-23 10:00N 43°51' E 023°16'0 0.5
2017-Nov-23 09:24N 43°51' E 023°16'0 0.0
2017-Nov-23 09:00N 43°51' E 023°16'1 2.0
2017-Nov-23 08:27N 43°51' E 023°17'1 2.1
2017-Nov-23 07:58N 43°51' E 023°18'3 2.4
2017-Nov-23 06:54N 43°51' E 023°22'1 2.5
2017-Nov-23 06:25N 43°51' E 023°24'1 2.4
2017-Nov-23 06:00N 43°51' E 023°25'1 2.7
2017-Nov-23 05:30N 43°51' E 023°27'3 2.2
2017-Nov-23 04:15N 43°50' E 023°30'1 2.3
2017-Nov-23 03:57N 43°49' E 023°31'1 2.4
2017-Nov-23 03:22N 43°48' E 023°33'1 2.1
2017-Nov-23 02:58N 43°48' E 023°34'1 2.0
2017-Nov-23 02:30N 43°48' E 023°35'  
Track history (hours):
 
Tides and Currents Weather Stations Pressure Air Temp Water Temp Dewpoint Dewpoint Depression Visibility Wind Speed Wind Dir Waves Ship Positions

Zelenodolsk

Last reported at 2017-Dec-01 19:46 UTC. Time now 2017-Dec-18 16:32 UTC.
Position N 43°51' E 023°22'.
Warning: this ship's position is 16 days out of date.

Length 32 m; draft 1.8 m.

Type: Ship. MMSI: 272029800.

Date/timePositionNaut miles runAvg speedWind from/ knotsBaromVisibWave heightAir tempDewpointWater temp
2017-Dec-01 19:46N 43°51' E 023°22'2 6.4
2017-Dec-01 19:26N 43°51' E 023°19'3 6.4
2017-Dec-01 18:58N 43°50' E 023°14'2 2.6
2017-Dec-01 18:13N 43°50' E 023°12'0 0.1
2017-Dec-01 16:51N 43°50' E 023°12'0 0.2
2017-Dec-01 16:06N 43°50' E 023°12'0 0.4
2017-Dec-01 15:49N 43°50' E 023°12'1 4.3
2017-Dec-01 15:28N 43°49' E 023°10'6 7.3
2017-Dec-01 14:36N 43°48' E 023°01'2 7.1
2017-Dec-01 14:22N 43°49' E 022°59'3 7.3
2017-Dec-01 14:00N 43°49' E 022°56'4 7.2
2017-Dec-01 13:30N 43°51' E 022°51'4 7.1
2017-Dec-01 13:00N 43°54' E 022°51'3 6.9
2017-Dec-01 12:30N 43°58' E 022°52'3 6.7
2017-Dec-01 12:00N 44°00' E 022°56'4 7.3
2017-Dec-01 11:31N 44°01' E 023°01'4 7.2
2017-Dec-01 11:00N 44°04' E 023°03'3 6.9
2017-Dec-01 10:30N 44°06' E 022°59'4 7.0
2017-Dec-01 10:00N 44°07' E 022°54'4 7.2
2017-Dec-01 09:30N 44°09' E 022°50'4 7.8
2017-Dec-01 09:01N 44°11' E 022°46'4 8.0
2017-Dec-01 08:30N 44°13' E 022°41'4 7.1
2017-Dec-01 08:00N 44°16' E 022°41'3 6.9
2017-Dec-01 07:30N 44°18' E 022°36'2 3.7
2017-Dec-01 07:01N 44°18' E 022°34'0 0.4
2017-Dec-01 06:30N 44°18' E 022°34'3 5.7
2017-Dec-01 06:00N 44°21' E 022°31'3 6.6
2017-Dec-01 05:30N 44°24' E 022°30'3 5.7
2017-Dec-01 05:00N 44°26' E 022°28'2 5.0
2017-Dec-01 04:31N 44°29' E 022°28'3 5.8
2017-Dec-01 04:00N 44°29' E 022°33'3 5.7
2017-Dec-01 03:30N 44°31' E 022°34'3 5.3
2017-Dec-01 03:00N 44°33' E 022°37'3 5.9
2017-Dec-01 02:31N 44°32' E 022°40'3 5.4
2017-Dec-01 02:01N 44°32' E 022°44'2 4.8
2017-Dec-01 01:30N 44°34' E 022°45'3 5.9
2017-Dec-01 01:00N 44°36' E 022°42'3 5.7
2017-Dec-01 00:30N 44°37' E 022°39'3 5.7
2017-Dec-01 00:00N 44°38' E 022°35'3 5.7
2017-Nov-30 23:30N 44°40' E 022°32'0 0.5
2017-Nov-30 22:58N 44°40' E 022°32'0 0.4
2017-Nov-30 22:30N 44°40' E 022°31'0 0.0
2017-Nov-30 22:00N 44°40' E 022°31'1 2.6
2017-Nov-30 21:30N 44°41' E 022°30'1 1.1
2017-Nov-30 21:00N 44°42' E 022°30'1 2.6
2017-Nov-30 20:30N 44°42' E 022°28'2 3.5
2017-Nov-30 20:01N 44°43' E 022°26'3 6.0
2017-Nov-30 19:30N 44°41' E 022°23'3 6.0
2017-Nov-30 19:01N 44°40' E 022°19'7 6.3
2017-Nov-30 17:52N 44°33' E 022°14'3 6.3
2017-Nov-30 17:19N 44°30' E 022°12'2 6.2
2017-Nov-30 17:00N 44°29' E 022°11'3 6.1
2017-Nov-30 16:30N 44°29' E 022°06'3 6.2
2017-Nov-30 16:00N 44°32' E 022°04'3 6.2
2017-Nov-30 15:30N 44°34' E 022°02'15 0.9
2017-Nov-29 23:11N 44°40' E 021°42'1 5.6
2017-Nov-29 23:00N 44°40' E 021°41'3 4.6
2017-Nov-29 22:24N 44°40' E 021°37'2 5.5
2017-Nov-29 21:59N 44°43' E 021°37'3 5.8
2017-Nov-29 21:31N 44°45' E 021°35'3 6.0
2017-Nov-29 21:00N 44°46' E 021°31'1 1.4
2017-Nov-29 20:30N 44°46' E 021°31'0 0.7
2017-Nov-29 20:00N 44°46' E 021°31'0 0.0
2017-Nov-29 19:30N 44°46' E 021°31'0 0.0
2017-Nov-29 18:53N 44°46' E 021°31'0 0.0
2017-Nov-29 18:30N 44°46' E 021°31'0 0.0
2017-Nov-29 17:59N 44°46' E 021°31'0 0.0
2017-Nov-29 17:30N 44°46' E 021°31'0 0.5
2017-Nov-29 17:00N 44°46' E 021°31'0 0.4
2017-Nov-29 16:24N 44°46' E 021°30'3 6.3
2017-Nov-29 15:51N 44°46' E 021°25'7 5.0
2017-Nov-29 14:29N 44°48' E 021°16'3 6.4
2017-Nov-29 14:00N 44°46' E 021°12'3 6.5
2017-Nov-29 13:30N 44°44' E 021°09'3 6.5
2017-Nov-29 13:00N 44°43' E 021°04'3 6.3
2017-Nov-29 12:30N 44°43' E 021°00'2 4.5
2017-Nov-29 12:00N 44°42' E 020°57'0 0.1
2017-Nov-29 11:30N 44°42' E 020°57'1 2.9
2017-Nov-29 11:00N 44°41' E 020°56'1 0.6
2017-Nov-29 09:27N 44°40' E 020°55'2 5.0
2017-Nov-29 09:00N 44°42' E 020°57'0 0.5
2017-Nov-29 08:30N 44°42' E 020°57'0 0.0
2017-Nov-29 08:00N 44°42' E 020°57'0 0.0
2017-Nov-29 07:30N 44°42' E 020°57'0 0.1
2017-Nov-29 07:00N 44°42' E 020°57'0 0.1
2017-Nov-29 06:30N 44°42' E 020°57'0 0.0
2017-Nov-29 06:00N 44°42' E 020°57'0 0.0
2017-Nov-29 05:30N 44°42' E 020°57'0 0.0
2017-Nov-29 05:00N 44°42' E 020°57'0 0.0
2017-Nov-29 04:30N 44°42' E 020°57'0 0.0
2017-Nov-29 03:57N 44°42' E 020°57'0 0.0
2017-Nov-29 03:23N 44°42' E 020°57'0 0.0
2017-Nov-29 03:00N 44°42' E 020°57'0 0.0
2017-Nov-29 02:30N 44°42' E 020°57'0 0.0
2017-Nov-29 02:00N 44°42' E 020°57'0 0.0
2017-Nov-29 01:30N 44°42' E 020°57'0 0.0
2017-Nov-29 01:00N 44°42' E 020°57'0 0.0
2017-Nov-29 00:30N 44°42' E 020°57'0 0.0
2017-Nov-29 00:00N 44°42' E 020°57'0 0.0
2017-Nov-28 23:30N 44°42' E 020°57'0 0.0
2017-Nov-28 23:00N 44°42' E 020°57'0 0.0
2017-Nov-28 22:30N 44°42' E 020°57'0 0.0
2017-Nov-28 22:00N 44°42' E 020°57'0 0.0
2017-Nov-28 21:30N 44°42' E 020°57'0 0.0
2017-Nov-28 21:00N 44°42' E 020°57'0 0.0
2017-Nov-28 20:30N 44°42' E 020°57'0 0.0
2017-Nov-28 20:00N 44°42' E 020°57'0 0.0
2017-Nov-28 19:30N 44°42' E 020°57'0 0.0
2017-Nov-28 19:00N 44°42' E 020°57'0 0.0
2017-Nov-28 18:31N 44°42' E 020°57'0 0.0
2017-Nov-28 18:00N 44°42' E 020°57'0 0.0
2017-Nov-28 17:30N 44°42' E 020°57'0 0.0
2017-Nov-28 17:00N 44°42' E 020°57'0 0.0
2017-Nov-28 16:30N 44°42' E 020°57'0 0.0
2017-Nov-28 16:00N 44°42' E 020°57'0 0.5
2017-Nov-28 15:01N 44°42' E 020°58'0 0.0
2017-Nov-28 14:30N 44°42' E 020°58'0 0.0
2017-Nov-28 14:00N 44°42' E 020°58'0 0.0
2017-Nov-28 13:30N 44°42' E 020°58'0 0.0
2017-Nov-28 13:00N 44°42' E 020°58'2 4.0
2017-Nov-28 12:30N 44°41' E 020°56'1 1.8
2017-Nov-28 12:00N 44°40' E 020°55'0 0.0
2017-Nov-28 11:31N 44°40' E 020°55'0 0.0
2017-Nov-28 11:00N 44°40' E 020°55'0 0.0
2017-Nov-28 10:31N 44°40' E 020°55'1 0.2
2017-Nov-28 06:49N 44°40' E 020°56'1 4.6
2017-Nov-28 06:29N 44°42' E 020°57'0 0.8
2017-Nov-28 06:01N 44°42' E 020°57'0 0.0
2017-Nov-28 05:30N 44°42' E 020°57'0 0.0
2017-Nov-28 04:30N 44°42' E 020°57'0 0.0
2017-Nov-28 04:00N 44°42' E 020°57'0 0.0
2017-Nov-28 03:29N 44°42' E 020°57'0 0.0
2017-Nov-28 03:00N 44°42' E 020°57'0 0.0
2017-Nov-28 02:30N 44°42' E 020°57'0 0.5
2017-Nov-28 01:34N 44°42' E 020°58'0 0.0
2017-Nov-28 01:03N 44°42' E 020°58'0 0.0
2017-Nov-28 00:34N 44°42' E 020°58'0 0.0
2017-Nov-27 23:48N 44°42' E 020°58'0 0.0
2017-Nov-27 23:31N 44°42' E 020°58'0 0.0
2017-Nov-27 23:01N 44°42' E 020°58'0 0.0
2017-Nov-27 22:30N 44°42' E 020°58'0 0.0
2017-Nov-27 22:01N 44°42' E 020°58'0 0.0
2017-Nov-27 21:31N 44°42' E 020°58'0 0.1
2017-Nov-27 21:00N 44°42' E 020°58'0 0.0
2017-Nov-27 20:31N 44°42' E 020°58'0 0.0
2017-Nov-27 20:01N 44°42' E 020°58'0 0.0
2017-Nov-27 19:30N 44°42' E 020°58'0 0.0
2017-Nov-27 19:00N 44°42' E 020°58'0 0.1
2017-Nov-27 18:30N 44°42' E 020°58'0 0.0
2017-Nov-27 18:01N 44°42' E 020°58'1 1.6
2017-Nov-27 17:30N 44°43' E 020°59'1 2.4
2017-Nov-27 17:00N 44°43' E 021°00'1 2.7
2017-Nov-27 16:30N 44°43' E 021°02'1 2.8
2017-Nov-27 16:01N 44°43' E 021°04'1 2.8
2017-Nov-27 15:31N 44°44' E 021°06'1 2.8
2017-Nov-27 15:01N 44°44' E 021°08'1 2.7
2017-Nov-27 14:30N 44°45' E 021°10'2 3.5
2017-Nov-27 13:50N 44°46' E 021°12'1 4.2
2017-Nov-27 13:31N 44°47' E 021°14'2 4.5
2017-Nov-27 12:58N 44°48' E 021°17'5 3.7
2017-Nov-27 11:44N 44°48' E 021°23'1 3.9
2017-Nov-27 11:26N 44°47' E 021°24'2 4.1
2017-Nov-27 11:00N 44°47' E 021°26'2 4.2
2017-Nov-27 10:27N 44°46' E 021°30'1 1.8
2017-Nov-27 10:00N 44°46' E 021°31'0 0.4
2017-Nov-27 09:27N 44°46' E 021°31'0 0.0
2017-Nov-27 09:00N 44°46' E 021°31'0 0.0
2017-Nov-27 08:12N 44°46' E 021°31'0 0.0
2017-Nov-27 07:53N 44°46' E 021°31'0 0.0
2017-Nov-27 07:30N 44°46' E 021°31'0 0.0
2017-Nov-27 06:56N 44°46' E 021°31'0 0.5
2017-Nov-27 06:30N 44°46' E 021°31'1 2.3
2017-Nov-27 05:56N 44°46' E 021°33'3 4.1
2017-Nov-27 05:18N 44°45' E 021°36'1 3.0
2017-Nov-27 05:00N 44°44' E 021°36'0 0.1
2017-Nov-27 04:17N 44°44' E 021°36'0 0.0
2017-Nov-27 03:57N 44°44' E 021°36'0 0.0
2017-Nov-27 03:31N 44°44' E 021°36'0 0.0
2017-Nov-27 02:56N 44°44' E 021°36'0 0.0
2017-Nov-27 02:31N 44°44' E 021°36'0 0.0
2017-Nov-27 01:45N 44°44' E 021°36'0 0.0
2017-Nov-27 01:25N 44°44' E 021°36'0 0.0
2017-Nov-27 01:01N 44°44' E 021°36'0 0.0
2017-Nov-27 00:26N 44°44' E 021°36'0 0.0
2017-Nov-27 00:00N 44°44' E 021°36'0 0.0
2017-Nov-26 23:22N 44°44' E 021°36'0 0.0
2017-Nov-26 23:00N 44°44' E 021°36'0 0.0
2017-Nov-26 22:22N 44°44' E 021°36'0 0.0
2017-Nov-26 22:01N 44°44' E 021°36'0 0.3
2017-Nov-26 21:22N 44°44' E 021°36'3 3.2
2017-Nov-26 20:21N 44°41' E 021°39'1 3.7
2017-Nov-26 19:58N 44°40' E 021°41'15 3.6
2017-Nov-26 15:50N 44°36' E 022°01'1 4.2
2017-Nov-26 15:30N 44°35' E 022°02'2 4.2
2017-Nov-26 14:55N 44°33' E 022°03'2 4.4
2017-Nov-26 14:31N 44°31' E 022°04'2 4.5
2017-Nov-26 14:00N 44°29' E 022°06'2 4.5
2017-Nov-26 13:31N 44°28' E 022°09'2 4.2
2017-Nov-26 13:01N 44°29' E 022°11'3 4.7
2017-Nov-26 12:28N 44°32' E 022°13'7 4.1
2017-Nov-26 10:41N 44°38' E 022°18'1 4.5
2017-Nov-26 10:25N 44°39' E 022°18'2 4.5
2017-Nov-26 10:00N 44°40' E 022°20'2 4.5
2017-Nov-26 09:30N 44°41' E 022°24'0 0.6
2017-Nov-26 09:00N 44°41' E 022°24'0 0.0
2017-Nov-26 08:30N 44°41' E 022°24'0 0.0
2017-Nov-26 08:00N 44°41' E 022°24'0 0.0
2017-Nov-26 07:30N 44°41' E 022°24'0 0.0
2017-Nov-26 07:00N 44°41' E 022°24'0 0.5
2017-Nov-26 06:30N 44°41' E 022°24'2 3.2
2017-Nov-26 06:00N 44°42' E 022°25'2 4.8
2017-Nov-26 05:30N 44°42' E 022°28'3 5.5
2017-Nov-26 05:00N 44°40' E 022°31'0 1.0
2017-Nov-26 04:30N 44°40' E 022°31'0 0.2
2017-Nov-26 03:43N 44°40' E 022°32'0 0.0
2017-Nov-26 03:31N 44°40' E 022°32'1 1.1
2017-Nov-26 02:30N 44°39' E 022°33'2 3.3
2017-Nov-26 02:01N 44°38' E 022°34'2 3.1
2017-Nov-26 01:31N 44°37' E 022°36'0 0.0
2017-Nov-26 01:01N 44°37' E 022°36'0 0.0
2017-Nov-26 00:31N 44°37' E 022°36'0 0.0
2017-Nov-26 00:01N 44°37' E 022°36'0 0.0
2017-Nov-25 23:18N 44°37' E 022°36'0 0.0
2017-Nov-25 23:01N 44°37' E 022°36'0 0.0
2017-Nov-25 22:31N 44°37' E 022°36'0 0.0
2017-Nov-25 22:01N 44°37' E 022°36'0 0.0
2017-Nov-25 21:31N 44°37' E 022°36'0 0.0
2017-Nov-25 21:01N 44°37' E 022°36'0 0.1
2017-Nov-25 20:31N 44°37' E 022°36'1 1.5
2017-Nov-25 20:01N 44°37' E 022°37'2 3.6
2017-Nov-25 19:31N 44°37' E 022°40'2 4.1
2017-Nov-25 19:01N 44°36' E 022°42'2 4.1
2017-Nov-25 18:30N 44°35' E 022°44'2 3.9
2017-Nov-25 18:01N 44°33' E 022°46'2 3.1
2017-Nov-25 17:31N 44°32' E 022°44'2 3.6
2017-Nov-25 17:01N 44°31' E 022°42'2 4.0
2017-Nov-25 16:31N 44°32' E 022°40'2 4.2
2017-Nov-25 16:00N 44°33' E 022°37'2 3.9
2017-Nov-25 15:30N 44°33' E 022°34'2 4.2
2017-Nov-25 15:00N 44°31' E 022°34'2 4.3
2017-Nov-25 14:30N 44°29' E 022°32'2 4.2
2017-Nov-25 14:00N 44°29' E 022°29'2 3.1
2017-Nov-25 13:30N 44°28' E 022°27'2 4.1
2017-Nov-25 13:01N 44°26' E 022°29'2 4.2
2017-Nov-25 12:31N 44°24' E 022°30'2 4.5
2017-Nov-25 12:01N 44°22' E 022°31'2 5.0
2017-Nov-25 11:31N 44°20' E 022°32'2 3.9
2017-Nov-25 11:00N 44°18' E 022°34'0 0.2
2017-Nov-25 10:30N 44°18' E 022°34'1 2.0
2017-Nov-25 10:01N 44°18' E 022°35'1 2.9
2017-Nov-25 09:31N 44°18' E 022°37'0 0.0
2017-Nov-25 09:01N 44°18' E 022°37'0 0.7
2017-Nov-25 08:30N 44°17' E 022°37'0 0.0
2017-Nov-25 08:01N 44°17' E 022°37'0 0.0
2017-Nov-25 07:31N 44°17' E 022°37'0 0.0
2017-Nov-25 07:01N 44°17' E 022°37'0 0.0
2017-Nov-25 06:31N 44°17' E 022°37'1 2.5
2017-Nov-25 06:01N 44°17' E 022°39'0 0.7
2017-Nov-25 05:31N 44°17' E 022°38'0 1.0
2017-Nov-25 05:01N 44°18' E 022°38'0 0.0
2017-Nov-25 04:31N 44°18' E 022°38'0 0.0
2017-Nov-25 03:48N 44°18' E 022°38'0 0.0
2017-Nov-25 03:31N 44°18' E 022°38'0 0.0
2017-Nov-25 03:01N 44°18' E 022°38'0 0.0
2017-Nov-25 02:31N 44°18' E 022°38'0 0.0
2017-Nov-25 02:01N 44°18' E 022°38'0 0.0
2017-Nov-25 01:31N 44°18' E 022°38'0 0.0
2017-Nov-25 01:01N 44°18' E 022°38'0 0.0
2017-Nov-25 00:31N 44°18' E 022°38'0 0.1
2017-Nov-25 00:01N 44°18' E 022°38'1 1.2
2017-Nov-24 23:31N 44°18' E 022°38'1 2.8
2017-Nov-24 23:01N 44°17' E 022°40'1 2.7
2017-Nov-24 22:31N 44°16' E 022°41'1 2.6
2017-Nov-24 22:01N 44°15' E 022°41'1 2.4
2017-Nov-24 21:31N 44°14' E 022°40'1 1.7
2017-Nov-24 21:00N 44°13' E 022°41'1 2.1
2017-Nov-24 20:30N 44°12' E 022°42'1 2.2
2017-Nov-24 20:00N 44°12' E 022°44'1 1.8
2017-Nov-24 19:30N 44°12' E 022°45'1 1.6
2017-Nov-24 19:00N 44°11' E 022°46'1 2.0
2017-Nov-24 18:30N 44°10' E 022°47'1 2.5
2017-Nov-24 18:00N 44°10' E 022°48'1 2.6
2017-Nov-24 17:30N 44°09' E 022°50'1 2.4
2017-Nov-24 17:00N 44°08' E 022°51'1 2.3
2017-Nov-24 16:30N 44°08' E 022°52'1 2.5
2017-Nov-24 16:00N 44°07' E 022°54'1 2.3
2017-Nov-24 15:30N 44°06' E 022°55'1 2.1
2017-Nov-24 15:00N 44°06' E 022°56'1 2.6
2017-Nov-24 14:30N 44°06' E 022°58'1 2.6
2017-Nov-24 14:00N 44°06' E 022°60'1 2.8
2017-Nov-24 13:30N 44°05' E 023°02'1 2.6
2017-Nov-24 13:00N 44°04' E 023°03'1 2.3
2017-Nov-24 12:30N 44°03' E 023°03'1 2.3
2017-Nov-24 12:00N 44°02' E 023°02'1 2.4
2017-Nov-24 11:30N 44°01' E 023°01'1 2.4
2017-Nov-24 11:00N 44°01' E 022°59'1 1.0
2017-Nov-24 10:30N 44°00' E 022°59'1 2.0
2017-Nov-24 10:00N 44°00' E 022°57'1 2.5
2017-Nov-24 09:30N 44°00' E 022°56'1 2.7
2017-Nov-24 09:00N 43°60' E 022°54'1 2.5
2017-Nov-24 08:30N 43°59' E 022°53'2 3.0
2017-Nov-24 08:00N 43°57' E 022°52'1 3.0
2017-Nov-24 07:30N 43°56' E 022°52'1 2.7
2017-Nov-24 07:00N 43°55' E 022°51'1 2.2
2017-Nov-24 06:30N 43°54' E 022°50'1 2.6
2017-Nov-24 06:00N 43°52' E 022°51'1 2.7
2017-Nov-24 05:30N 43°51' E 022°51'1 2.8
2017-Nov-24 05:00N 43°50' E 022°53'1 2.9
2017-Nov-24 04:30N 43°50' E 022°55'1 2.7
2017-Nov-24 04:00N 43°49' E 022°56'1 2.6
2017-Nov-24 03:29N 43°49' E 022°58'1 2.6
2017-Nov-24 02:58N 43°48' E 023°00'1 0.2
2017-Nov-23 21:52N 43°48' E 023°01'1 2.1
2017-Nov-23 21:10N 43°48' E 023°03'0 1.9
2017-Nov-23 21:00N 43°48' E 023°04'3 1.8
2017-Nov-23 19:06N 43°48' E 023°08'1 2.3
2017-Nov-23 18:39N 43°49' E 023°09'0 2.6
2017-Nov-23 18:30N 43°49' E 023°10'1 2.5
2017-Nov-23 18:00N 43°50' E 023°12'1 2.8
2017-Nov-23 17:30N 43°50' E 023°13'1 2.4
2017-Nov-23 16:53N 43°51' E 023°15'0 0.6
2017-Nov-23 16:23N 43°51' E 023°16'3 7.1
2017-Nov-23 16:00N 43°50' E 023°12'0 0.7
2017-Nov-23 15:21N 43°50' E 023°13'1 1.8
2017-Nov-23 15:00N 43°50' E 023°13'0 0.8
2017-Nov-23 14:30N 43°50' E 023°14'0 0.0
2017-Nov-23 13:57N 43°50' E 023°14'0 0.0
2017-Nov-23 13:24N 43°50' E 023°14'0 0.0
2017-Nov-23 10:32N 43°50' E 023°14'0 0.8
2017-Nov-23 10:29N 43°50' E 023°14'1 2.8
2017-Nov-23 10:00N 43°51' E 023°16'0 0.5
2017-Nov-23 09:24N 43°51' E 023°16'0 0.0
2017-Nov-23 09:00N 43°51' E 023°16'1 2.0
2017-Nov-23 08:27N 43°51' E 023°17'1 2.1
2017-Nov-23 07:58N 43°51' E 023°18'3 2.4
2017-Nov-23 06:54N 43°51' E 023°22'1 2.5
2017-Nov-23 06:25N 43°51' E 023°24'1 2.4
2017-Nov-23 06:00N 43°51' E 023°25'1 2.7
2017-Nov-23 05:30N 43°51' E 023°27'3 2.2
2017-Nov-23 04:15N 43°50' E 023°30'1 2.3
2017-Nov-23 03:57N 43°49' E 023°31'1 2.4
2017-Nov-23 03:22N 43°48' E 023°33'1 2.1
2017-Nov-23 02:58N 43°48' E 023°34'1 2.0
2017-Nov-23 02:30N 43°48' E 023°35'  

Dump ship's entire track history